Aeroporto :
LOGIN :

Iscrizione | Disclaimer

   EN    FR    IT 

 










Sommario :    VFR   VFR Marginale   IFR   IFR Intensivo   IFR Molto Intensivo
Visibilità : 
Base nubi : 
>= 8 km
>= 3000ft
5 / 8 km
1000 / 3000 ft
1500m / 5 km
500 / 1000 ft
800 / 1500m
200 / 500 ft
< 800m
< 200 ft
Simboli :   Temporali  Nebbia  Neve Forte  Precipitazioni Forti  Vento > 20 kt
SIGMETs :   Varie  Temporali  Ghiacco  Turbolenza  Onda orograficha  Ceneri Vulcaniche






- Altitudine del aeroporto : 184 ft
- Codice IATA : BRU


EBBR - Bruxelles

ULTIMO METAR :
  • 120120Z 22009KT 9999 BKN010 05/03 Q1003 NOSIG

METARs OBSOLETI :
  • 120050Z 22010KT 9999 BKN010 05/03 Q1002 NOSIG
  • 120020Z 23009KT 9999 BKN011 05/04 Q1003 NOSIG
  • 112350Z 22009KT 9999 BKN010 05/03 Q1003 NOSIG
  • 112320Z 22009KT 9999 SCT010 BKN024 05/04 Q1003 NOSIG
  • 112250Z 22011KT 9999 -SHRA FEW010 BKN037 05/03 Q1003 NOSIG

TAF TAF EBBR
Valido dal 12 a 00 ore il 13 a 06 ore UTC


112300Z 1200/1306 22010KT 9999 SCT020 SCT035
TEMPO 1200/1202 22015G25KT 4500 SHRA BKN008 SCT015CB
PROB30
TEMPO 1202/1211 SCT008 BKN012
BECMG 1217/1219 17015G25KT RA BKN014
PROB40
TEMPO 1221/1302 4000 RADZ BKN009
BECMG 1302/1304 24013KT
PROB30
TEMPO 1304/1306 25015G25KT 4500 RA SHRA BKN014CB



MetMap, La meteo Aeronautica in un colpo d'occhio ! - Copyright ORBIFLY Dicembre 2007 - Disclaimer

ORBIFLY MET'MAP TEAM :

Programmazione e sviluppo : Alexandra Zaïnal
Concezione : Baudouin d'Aumeries
Aiuto per la programmazione : Marc-Olivier Méhu
Supporto tecnico e logistico : Manuel Goepfert
Aiuto per la traduzione : Arnaldo La Scala

Contatto : metmap@orbifly.com




FONTI E CREDITI :

   NOAA